Time;durP1;ratioP1;P1;durP2;ratioP2;P2;SDS_P1;SDS_P2;PMS_P1;PMS_P2;Temp;Humidity;BMP_temperature;BMP_pressure;BME280_temperature;BME280_humidity;BME280_pressure;Samples;Min_cycle;Max_cycle;Signal;HPM_P1;HPM_P2
2022/10/04 00:00:09;;;;;;;;;;;11.30;99.90;;;;;;5017840;28;19925;-67
2022/10/04 00:02:35;;;;;;;;;;;11.30;99.90;;;;;;5021730;28;19933;-67
2022/10/04 00:05:07;;;;;;;;;;;11.30;99.90;;;;;;5018595;28;19925;-68
2022/10/04 00:07:36;;;;;;;;;;;11.30;99.90;;;;;;5012633;28;19926;-68
2022/10/04 00:10:21;;;;;;;;;;;11.30;99.90;;;;;;5013415;28;19981;-68
2022/10/04 00:12:48;;;;;;;;;;;11.30;99.90;;;;;;5023297;28;20420;-68
2022/10/04 00:15:18;;;;;;;;;;;11.30;99.90;;;;;;5019060;28;19922;-68
2022/10/04 00:17:44;;;;;;;;;;;11.20;99.90;;;;;;5026061;28;19930;-68
2022/10/04 00:20:36;;;;;;;;;;;11.30;99.90;;;;;;5019985;28;19991;-68
2022/10/04 00:23:20;;;;;;;;;;;11.20;99.90;;;;;;5026949;28;19964;-67
2022/10/04 00:25:45;;;;;;;;;;;11.20;99.90;;;;;;5027454;28;19967;-68
2022/10/04 00:28:20;;;;;;;;;;;11.20;99.90;;;;;;5018870;28;19921;-68
2022/10/04 00:31:04;;;;;;;;;;;11.20;99.90;;;;;;5014853;28;19922;-68
2022/10/04 00:33:49;;;;;;;;;;;11.20;99.90;;;;;;5019920;28;19992;-68
2022/10/04 00:36:24;;;;;;;;;;;11.20;99.90;;;;;;5013754;28;19924;-68
2022/10/04 00:39:08;;;;;;;;;;;11.20;99.90;;;;;;5016168;28;20358;-68
2022/10/04 00:41:45;;;;;;;;;;;11.20;99.90;;;;;;5026372;28;19921;-68
2022/10/04 00:44:14;;;;;;;;;;;11.20;99.90;;;;;;5029662;28;20449;-68
2022/10/04 00:46:40;;;;;;;;;;;11.20;99.90;;;;;;5022174;28;19936;-68
2022/10/04 00:49:06;;;;;;;;;;;11.20;99.90;;;;;;5022758;28;19928;-68
2022/10/04 00:51:47;;;;;;;;;;;11.10;99.90;;;;;;5025757;28;19933;-68
2022/10/04 00:54:22;;;;;;;;;;;11.20;99.90;;;;;;5037828;23;20437;-67
2022/10/04 00:56:52;;;;;;;;;;;11.20;99.90;;;;;;5043831;28;19975;-66
2022/10/04 00:59:25;;;;;;;;;;;11.20;99.90;;;;;;5066294;28;19920;-67
2022/10/04 01:01:55;;;;;;;;;;;11.20;99.90;;;;;;5027553;28;19972;-66
2022/10/04 01:04:46;;;;;;;;;;;11.10;99.90;;;;;;5047849;28;19928;-67
2022/10/04 01:07:14;;;;;;;;;;;11.10;99.90;;;;;;5026272;28;19920;-66
2022/10/04 01:09:49;;;;;;;;;;;11.10;99.90;;;;;;5038806;28;20298;-67
2022/10/04 01:12:38;;;;;;;;;;;11.10;99.90;;;;;;5048494;28;20366;-66
2022/10/04 01:15:11;;;;;;;;;;;11.10;99.90;;;;;;5013653;28;19927;-66
2022/10/04 01:17:36;;;;;;;;;;;11.00;99.90;;;;;;5031640;28;19931;-66
2022/10/04 01:20:02;;;;;;;;;;;11.00;99.90;;;;;;5038415;28;20011;-67
2022/10/04 01:22:32;;;;;;;;;;;11.00;99.90;;;;;;5048743;28;20344;-66
2022/10/04 01:24:58;;;;;;;;;;;10.90;99.90;;;;;;5018139;28;19932;-66
2022/10/04 01:27:32;;;;;;;;;;;10.90;99.90;;;;;;5049084;28;19920;-66
2022/10/04 01:29:57;;;;;;;;;;;10.90;99.90;;;;;;5047808;28;20389;-66
2022/10/04 01:32:23;;;;;;;;;;;10.90;99.90;;;;;;5044757;28;19921;-66
2022/10/04 01:34:49;;;;;;;;;;;10.90;99.90;;;;;;5039881;28;19921;-66
2022/10/04 01:37:14;;;;;;;;;;;10.90;99.90;;;;;;5044090;28;19921;-66
2022/10/04 01:39:40;;;;;;;;;;;10.90;99.90;;;;;;5040401;28;19929;-66
2022/10/04 01:42:08;;;;;;;;;;;10.90;99.90;;;;;;5042896;28;19936;-66
2022/10/04 01:44:44;;;;;;;;;;;10.90;99.90;;;;;;5041390;28;19921;-66
2022/10/04 01:47:17;;;;;;;;;;;10.90;99.90;;;;;;5041073;28;19920;-66
2022/10/04 01:49:44;;;;;;;;;;;10.90;99.90;;;;;;5047838;28;19925;-66
2022/10/04 01:52:14;;;;;;;;;;;10.90;99.90;;;;;;5046107;28;20398;-66
2022/10/04 01:54:42;;;;;;;;;;;10.90;99.90;;;;;;5043883;28;20047;-66
2022/10/04 01:57:16;;;;;;;;;;;10.90;99.90;;;;;;5041888;28;19968;-66
2022/10/04 01:59:45;;;;;;;;;;;10.90;99.90;;;;;;5044320;28;20278;-66
2022/10/04 02:02:31;;;;;;;;;;;10.90;99.90;;;;;;5045125;28;20016;-66
2022/10/04 02:04:58;;;;;;;;;;;10.90;99.90;;;;;;5045131;28;20275;-66
2022/10/04 02:07:27;;;;;;;;;;;10.90;99.90;;;;;;5040898;28;19920;-66
2022/10/04 02:09:58;;;;;;;;;;;10.90;99.90;;;;;;5045916;28;19971;-66
2022/10/04 02:12:25;;;;;;;;;;;10.90;99.90;;;;;;5035133;28;20482;-66
2022/10/04 02:14:52;;;;;;;;;;;10.90;99.90;;;;;;5045148;28;20310;-66
2022/10/04 02:17:19;;;;;;;;;;;10.90;99.90;;;;;;5047602;28;19925;-66
2022/10/04 02:19:45;;;;;;;;;;;10.80;99.90;;;;;;5048635;28;19939;-66
2022/10/04 02:22:11;;;;;;;;;;;10.80;99.90;;;;;;5044944;28;20359;-66
2022/10/04 02:24:41;;;;;;;;;;;10.80;99.90;;;;;;5026962;28;19974;-66
2022/10/04 02:27:07;;;;;;;;;;;10.70;99.90;;;;;;5039803;28;19925;-66
2022/10/04 02:29:33;;;;;;;;;;;10.70;99.90;;;;;;5047045;28;19921;-66
2022/10/04 02:34:43;;;;;;;;;;;10.60;99.90;;;;;;5033449;28;19925;-66
2022/10/04 02:37:09;;;;;;;;;;;10.60;99.90;;;;;;5047777;28;19931;-66
2022/10/04 02:39:48;;;;;;;;;;;10.60;99.90;;;;;;5040357;28;19920;-66
2022/10/04 02:42:40;;;;;;;;;;;10.50;99.90;;;;;;5042645;28;20371;-66
2022/10/04 02:45:20;;;;;;;;;;;10.50;99.90;;;;;;5020309;28;19921;-66
2022/10/04 02:47:49;;;;;;;;;;;10.40;99.90;;;;;;5047934;28;20356;-66
2022/10/04 02:50:19;;;;;;;;;;;10.40;99.90;;;;;;5044575;28;19924;-66
2022/10/04 02:52:47;;;;;;;;;;;10.30;99.90;;;;;;5041710;28;19920;-66
2022/10/04 02:55:18;;;;;;;;;;;10.30;99.90;;;;;;5041624;28;19928;-66
2022/10/04 02:57:44;;;;;;;;;;;10.30;99.90;;;;;;5036425;28;19931;-66
2022/10/04 03:00:09;;;;;;;;;;;10.30;99.90;;;;;;5032235;28;19933;-66
2022/10/04 03:02:35;;;;;;;;;;;10.30;99.90;;;;;;5033611;28;19925;-66
2022/10/04 03:05:06;;;;;;;;;;;10.30;99.90;;;;;;5043600;28;20059;-66
2022/10/04 03:07:33;;;;;;;;;;;10.20;99.90;;;;;;5046720;28;19932;-66
2022/10/04 03:09:59;;;;;;;;;;;10.20;99.90;;;;;;5035847;28;19921;-66
2022/10/04 03:12:25;;;;;;;;;;;10.30;99.90;;;;;;5030345;28;19924;-66
2022/10/04 03:14:53;;;;;;;;;;;10.30;99.90;;;;;;5040694;28;19932;-66
2022/10/04 03:17:19;;;;;;;;;;;10.20;99.90;;;;;;5036615;28;19921;-66
2022/10/04 03:19:47;;;;;;;;;;;10.20;99.90;;;;;;5038752;28;19936;-66
2022/10/04 03:22:13;;;;;;;;;;;10.20;99.90;;;;;;5039242;28;20302;-66
2022/10/04 03:24:45;;;;;;;;;;;10.20;99.90;;;;;;5046031;28;19927;-66
2022/10/04 03:27:40;;;;;;;;;;;10.20;99.90;;;;;;5038423;28;20007;-66
2022/10/04 03:30:06;;;;;;;;;;;10.30;99.90;;;;;;5016843;28;19925;-66
2022/10/04 03:32:32;;;;;;;;;;;10.30;99.90;;;;;;5020098;28;20446;-66
2022/10/04 03:34:59;;;;;;;;;;;10.30;99.90;;;;;;5049079;28;19920;-66
2022/10/04 03:37:25;;;;;;;;;;;10.30;99.90;;;;;;5045103;28;19976;-66
2022/10/04 03:39:52;;;;;;;;;;;10.30;99.90;;;;;;5040856;28;19960;-66
2022/10/04 03:42:19;;;;;;;;;;;10.30;99.90;;;;;;5036916;28;20773;-66
2022/10/04 03:44:45;;;;;;;;;;;10.30;99.90;;;;;;5041573;28;19936;-66
2022/10/04 03:47:12;;;;;;;;;;;10.20;99.90;;;;;;5046826;28;21646;-66
2022/10/04 03:49:39;;;;;;;;;;;10.20;99.90;;;;;;5046580;28;19921;-65
2022/10/04 03:52:06;;;;;;;;;;;10.20;99.90;;;;;;5032496;28;19928;-66
2022/10/04 03:54:32;;;;;;;;;;;10.20;99.90;;;;;;5049254;28;19929;-66
2022/10/04 03:56:59;;;;;;;;;;;10.20;99.90;;;;;;5031569;28;19935;-66
2022/10/04 03:59:25;;;;;;;;;;;10.10;99.90;;;;;;5040809;28;20256;-66
2022/10/04 04:02:15;;;;;;;;;;;10.10;99.90;;;;;;5050689;28;20019;-66
2022/10/04 04:04:59;;;;;;;;;;;10.10;99.90;;;;;;5044001;28;19932;-66
2022/10/04 04:07:29;;;;;;;;;;;10.00;99.90;;;;;;5053666;28;20015;-66
2022/10/04 04:10:18;;;;;;;;;;;10.00;99.90;;;;;;5047440;28;20275;-66
2022/10/04 04:12:53;;;;;;;;;;;10.00;99.90;;;;;;5044495;28;20413;-66
2022/10/04 04:15:19;;;;;;;;;;;10.00;99.90;;;;;;5028289;28;20015;-66
2022/10/04 04:17:45;;;;;;;;;;;10.00;99.90;;;;;;5044027;28;20019;-66
2022/10/04 04:20:17;;;;;;;;;;;10.00;99.90;;;;;;5041529;28;20011;-66
2022/10/04 04:22:45;;;;;;;;;;;10.00;99.90;;;;;;5044208;28;20394;-66
2022/10/04 04:25:13;;;;;;;;;;;10.00;99.90;;;;;;5044802;28;19970;-66
2022/10/04 04:27:40;;;;;;;;;;;10.00;99.90;;;;;;5045447;28;19971;-66
2022/10/04 04:30:07;;;;;;;;;;;10.00;99.90;;;;;;5046436;28;19921;-66
2022/10/04 04:32:35;;;;;;;;;;;9.90;99.90;;;;;;5050220;28;20015;-66
2022/10/04 04:35:09;;;;;;;;;;;9.90;99.90;;;;;;5045299;28;19929;-66
2022/10/04 04:37:35;;;;;;;;;;;9.80;99.90;;;;;;5051974;28;19936;-66
2022/10/04 04:40:00;;;;;;;;;;;;;;;;;;5051969;28;19924;-66
2022/10/04 04:42:30;;;;;;;;;;;9.70;99.90;;;;;;5048760;28;19932;-66
2022/10/04 04:45:13;;;;;;;;;;;9.70;99.90;;;;;;5048221;28;19987;-66
2022/10/04 04:47:47;;;;;;;;;;;9.70;99.90;;;;;;5042201;28;19928;-66
2022/10/04 04:50:18;;;;;;;;;;;9.70;99.90;;;;;;5046600;28;19936;-66
2022/10/04 04:52:45;;;;;;;;;;;9.60;99.90;;;;;;5047623;28;19979;-66
2022/10/04 04:55:16;;;;;;;;;;;9.60;99.90;;;;;;5041509;28;19991;-66
2022/10/04 04:57:43;;;;;;;;;;;9.60;99.90;;;;;;5046521;28;20282;-66
2022/10/04 05:00:14;;;;;;;;;;;9.60;99.90;;;;;;5030536;28;19968;-66
2022/10/04 05:02:49;;;;;;;;;;;9.50;99.90;;;;;;5039678;28;19932;-66
2022/10/04 05:05:19;;;;;;;;;;;9.50;99.90;;;;;;5036933;28;20371;-66
2022/10/04 05:07:45;;;;;;;;;;;9.50;99.90;;;;;;5040796;28;20003;-66
2022/10/04 05:10:21;;;;;;;;;;;9.50;99.90;;;;;;5041369;28;19944;-66
2022/10/04 05:12:47;;;;;;;;;;;9.50;99.90;;;;;;5051712;28;19921;-66
2022/10/04 05:15:12;;;;;;;;;;;9.40;99.90;;;;;;5046974;28;19952;-66
2022/10/04 05:17:38;;;;;;;;;;;9.40;99.90;;;;;;5051507;28;19963;-66
2022/10/04 05:20:04;;;;;;;;;;;9.40;99.90;;;;;;5039665;28;20007;-66
2022/10/04 05:22:29;;;;;;;;;;;9.40;99.90;;;;;;5042957;28;19962;-66
2022/10/04 05:24:57;;;;;;;;;;;9.40;99.90;;;;;;5043580;28;19925;-66
2022/10/04 05:27:29;;;;;;;;;;;9.40;99.90;;;;;;5045145;28;19932;-66
2022/10/04 05:30:13;;;;;;;;;;;9.30;99.90;;;;;;5043816;28;19975;-66
2022/10/04 05:32:57;;;;;;;;;;;9.30;99.90;;;;;;5050434;28;19964;-66
2022/10/04 05:35:24;;;;;;;;;;;9.30;99.90;;;;;;5047335;28;19921;-66
2022/10/04 05:37:54;;;;;;;;;;;9.30;99.90;;;;;;5046273;28;19921;-66
2022/10/04 05:40:35;;;;;;;;;;;9.30;99.90;;;;;;5041927;28;19925;-66
2022/10/04 05:43:01;;;;;;;;;;;9.20;99.90;;;;;;5035365;28;19932;-66
2022/10/04 05:45:28;;;;;;;;;;;9.20;99.90;;;;;;5046339;28;19920;-66
2022/10/04 05:47:55;;;;;;;;;;;9.20;99.90;;;;;;5045805;28;19925;-66
2022/10/04 05:50:32;;;;;;;;;;;9.10;99.90;;;;;;5047420;28;19921;-66
2022/10/04 05:53:07;;;;;;;;;;;9.10;99.90;;;;;;5034079;28;19928;-66
2022/10/04 05:55:55;;;;;;;;;;;9.10;99.90;;;;;;5045401;28;19948;-66
2022/10/04 05:58:28;;;;;;;;;;;9.10;99.90;;;;;;5043563;28;19929;-66
2022/10/04 06:00:53;;;;;;;;;;;9.00;99.90;;;;;;5043955;28;19964;-66
2022/10/04 06:03:19;;;;;;;;;;;9.00;99.90;;;;;;5051506;28;20037;-66
2022/10/04 06:06:03;;;;;;;;;;;9.00;99.90;;;;;;5040388;28;19935;-66
2022/10/04 06:08:41;;;;;;;;;;;9.00;99.90;;;;;;5032099;28;20018;-66
2022/10/04 06:11:09;;;;;;;;;;;9.00;99.90;;;;;;5037136;28;19964;-66
2022/10/04 06:13:53;;;;;;;;;;;9.00;99.90;;;;;;5027260;28;20354;-66
2022/10/04 06:16:37;;;;;;;;;;;9.00;99.90;;;;;;5049887;28;20286;-66
2022/10/04 06:19:12;;;;;;;;;;;9.10;99.90;;;;;;5040520;28;20358;-66
2022/10/04 06:21:52;;;;;;;;;;;9.10;99.90;;;;;;5047537;28;19967;-66
2022/10/04 06:24:20;;;;;;;;;;;9.20;99.90;;;;;;5043817;28;20383;-66
2022/10/04 06:26:48;;;;;;;;;;;9.50;99.90;;;;;;5049882;28;19929;-66
2022/10/04 06:29:16;;;;;;;;;;;9.70;99.90;;;;;;5046070;28;19956;-65
2022/10/04 06:31:48;;;;;;;;;;;9.90;99.90;;;;;;5044356;28;19927;-67
2022/10/04 06:34:32;;;;;;;;;;;10.10;99.90;;;;;;5036700;28;19975;-68
2022/10/04 06:37:21;;;;;;;;;;;10.30;99.90;;;;;;5041999;28;20008;-67
2022/10/04 06:40:06;;;;;;;;;;;10.50;99.90;;;;;;5011172;28;21116;-68
2022/10/04 06:42:35;;;;;;;;;;;10.90;99.90;;;;;;5034427;28;19925;-68
2022/10/04 06:45:20;;;;;;;;;;;11.70;99.90;;;;;;5044790;28;20501;-68
2022/10/04 06:48:02;;;;;;;;;;;12.40;99.90;;;;;;5041356;28;19936;-68
2022/10/04 06:50:43;;;;;;;;;;;12.70;99.90;;;;;;5044149;28;19928;-68
2022/10/04 06:53:23;;;;;;;;;;;12.80;99.90;;;;;;5045269;28;19931;-68
2022/10/04 06:55:55;;;;;;;;;;;13.30;99.90;;;;;;5045166;28;20325;-68
2022/10/04 06:58:33;;;;;;;;;;;14.40;99.90;;;;;;5039122;28;20023;-68
2022/10/04 07:01:04;;;;;;;;;;;15.40;99.90;;;;;;5047516;28;19960;-67
2022/10/04 07:03:39;;;;;;;;;;;16.10;99.90;;;;;;5043341;28;19929;-67
2022/10/04 07:06:06;;;;;;;;;;;16.80;99.90;;;;;;5046810;28;20397;-65
2022/10/04 07:08:46;;;;;;;;;;;17.40;99.90;;;;;;5038625;28;19925;-66
2022/10/04 07:11:14;;;;;;;;;;;17.60;99.90;;;;;;5041836;28;19975;-67
2022/10/04 07:13:39;;;;;;;;;;;17.70;99.90;;;;;;5031917;28;20400;-67
2022/10/04 07:16:17;;;;;;;;;;;17.20;99.90;;;;;;5040058;28;20008;-68
2022/10/04 07:18:48;;;;;;;;;;;16.30;99.90;;;;;;5046646;28;19929;-68
2022/10/04 07:21:15;;;;;;;;;;;15.70;99.90;;;;;;5046193;28;19921;-66
2022/10/04 07:23:52;;;;;;;;;;;15.30;99.90;;;;;;5030387;28;19928;-67
2022/10/04 07:26:56;;;;;;;;;;;14.80;99.90;;;;;;5040060;28;19921;-66
2022/10/04 07:29:30;;;;;;;;;;;14.50;99.90;;;;;;4977164;28;20040;-66
2022/10/04 07:32:05;;;;;;;;;;;14.10;99.90;;;;;;4989733;28;19925;-65
2022/10/04 07:34:42;;;;;;;;;;;14.00;99.90;;;;;;5013648;28;20287;-66
2022/10/04 07:37:09;;;;;;;;;;;14.00;99.90;;;;;;5038907;28;20316;-66
2022/10/04 07:39:44;;;;;;;;;;;14.00;99.90;;;;;;5044257;28;19932;-66
2022/10/04 07:42:18;;;;;;;;;;;13.90;99.90;;;;;;5042399;28;20425;-66
2022/10/04 07:44:47;;;;;;;;;;;13.80;99.90;;;;;;5053263;28;19959;-66
2022/10/04 07:47:19;;;;;;;;;;;13.70;99.90;;;;;;5041276;28;19932;-66
2022/10/04 07:49:48;;;;;;;;;;;13.70;99.90;;;;;;5046128;28;20019;-65
2022/10/04 07:52:31;;;;;;;;;;;13.80;99.90;;;;;;5045118;28;20007;-66
2022/10/04 07:55:15;;;;;;;;;;;13.90;99.90;;;;;;5037923;28;19960;-66
2022/10/04 07:57:49;;;;;;;;;;;14.20;99.90;;;;;;5039065;28;19920;-66
2022/10/04 08:00:16;;;;;;;;;;;14.30;99.90;;;;;;5024640;28;19978;-66
2022/10/04 08:02:41;;;;;;;;;;;14.60;99.90;;;;;;5037942;28;19929;-66
2022/10/04 08:05:07;;;;;;;;;;;14.60;99.90;;;;;;5037975;28;19975;-65
2022/10/04 08:08:02;;;;;;;;;;;14.70;99.90;;;;;;5039211;28;20030;-65
2022/10/04 08:10:46;;;;;;;;;;;14.60;99.90;;;;;;5022893;28;19944;-66
2022/10/04 08:13:25;;;;;;;;;;;14.70;99.90;;;;;;5038753;28;20516;-66
2022/10/04 08:15:51;;;;;;;;;;;14.70;99.90;;;;;;5039068;28;19921;-66
2022/10/04 08:18:23;;;;;;;;;;;14.60;99.90;;;;;;5036569;28;19932;-66
2022/10/04 08:20:53;;;;;;;;;;;14.60;99.90;;;;;;5044179;28;19982;-66
2022/10/04 08:23:43;;;;;;;;;;;14.40;99.90;;;;;;5044623;28;19974;-66
2022/10/04 08:26:15;;;;;;;;;;;14.30;99.90;;;;;;5039843;28;19921;-66
2022/10/04 08:31:33;;;;;;;;;;;14.10;99.90;;;;;;5040944;28;19921;-66
2022/10/04 08:34:08;;;;;;;;;;;13.90;99.90;;;;;;5047736;28;20404;-66
2022/10/04 08:36:43;;;;;;;;;;;14.00;99.90;;;;;;5042131;28;19920;-66
2022/10/04 08:39:24;;;;;;;;;;;14.00;99.90;;;;;;5045214;28;20008;-66
2022/10/04 08:42:00;;;;;;;;;;;14.10;99.90;;;;;;5031301;28;19935;-66
2022/10/04 08:44:38;;;;;;;;;;;14.10;99.90;;;;;;5044711;28;20055;-66
2022/10/04 08:47:18;;;;;;;;;;;14.30;99.90;;;;;;5044090;28;20354;-65
2022/10/04 08:50:04;;;;;;;;;;;14.40;99.90;;;;;;5040673;28;19921;-67
2022/10/04 08:52:48;;;;;;;;;;;14.50;99.90;;;;;;5042308;28;19920;-67
2022/10/04 08:55:33;;;;;;;;;;;14.50;99.90;;;;;;5045008;28;20396;-67
2022/10/04 08:58:14;;;;;;;;;;;14.60;99.90;;;;;;5032518;28;20074;-67
2022/10/04 09:00:47;;;;;;;;;;;14.70;99.90;;;;;;5042557;28;20413;-67
2022/10/04 09:03:34;;;;;;;;;;;14.70;99.90;;;;;;5027820;28;19921;-67
2022/10/04 09:06:18;;;;;;;;;;;14.70;99.90;;;;;;5041733;28;19921;-67
2022/10/04 09:08:53;;;;;;;;;;;14.80;99.90;;;;;;5047546;28;19921;-67
2022/10/04 09:11:18;;;;;;;;;;;14.80;99.90;;;;;;5046564;28;19944;-67
2022/10/04 09:13:47;;;;;;;;;;;14.90;99.90;;;;;;5047667;28;19925;-67
2022/10/04 09:16:17;;;;;;;;;;;14.90;99.90;;;;;;5048608;28;20294;-67
2022/10/04 09:19:02;;;;;;;;;;;15.00;99.90;;;;;;5056421;28;20409;-67
2022/10/04 09:22:03;;;;;;;;;;;15.00;99.90;;;;;;5034752;28;19970;-67
2022/10/04 09:24:34;;;;;;;;;;;15.00;99.90;;;;;;4985604;28;20065;-66
2022/10/04 09:27:06;;;;;;;;;;;15.00;99.90;;;;;;5037640;28;20055;-66
2022/10/04 09:29:51;;;;;;;;;;;15.00;99.90;;;;;;5047783;28;19928;-66
2022/10/04 09:32:28;;;;;;;;;;;15.00;99.90;;;;;;5047378;28;19929;-66
2022/10/04 09:35:13;;;;;;;;;;;15.00;99.90;;;;;;5036073;28;19921;-67
2022/10/04 09:37:41;;;;;;;;;;;15.00;99.90;;;;;;5043938;28;19932;-66
2022/10/04 09:40:24;;;;;;;;;;;15.00;99.90;;;;;;5041249;28;19979;-66
2022/10/04 09:43:09;;;;;;;;;;;15.10;99.90;;;;;;5046137;28;19960;-66
2022/10/04 09:45:38;;;;;;;;;;;15.10;99.90;;;;;;5037795;28;20019;-67
2022/10/04 09:48:03;;;;;;;;;;;15.10;99.90;;;;;;5042317;28;20383;-67
2022/10/04 09:50:50;;;;;;;;;;;15.10;99.90;;;;;;5044192;28;19929;-67
2022/10/04 09:53:15;;;;;;;;;;;15.20;99.90;;;;;;5044506;28;20367;-67
2022/10/04 09:55:52;;;;;;;;;;;15.20;99.90;;;;;;5042828;28;19936;-67
2022/10/04 09:58:44;;;;;;;;;;;15.20;99.90;;;;;;5046749;28;19933;-67
2022/10/04 10:01:21;;;;;;;;;;;15.30;99.90;;;;;;5047627;28;19929;-66
2022/10/04 10:04:06;;;;;;;;;;;15.30;99.90;;;;;;5046299;28;19935;-67
2022/10/04 10:06:50;;;;;;;;;;;15.40;99.90;;;;;;5044723;28;19971;-67
2022/10/04 10:09:17;;;;;;;;;;;15.50;99.90;;;;;;5045665;28;19921;-67
2022/10/04 10:14:47;;;;;;;;;;;15.60;99.90;;;;;;5047253;28;19990;-66
2022/10/04 10:17:36;;;;;;;;;;;15.70;99.90;;;;;;5045655;28;19921;-66
2022/10/04 10:20:28;;;;;;;;;;;15.70;99.90;;;;;;5045410;28;19936;-67
2022/10/04 10:22:56;;;;;;;;;;;15.80;99.90;;;;;;5016874;28;20272;-66
2022/10/04 10:25:31;;;;;;;;;;;15.90;99.90;;;;;;5043199;28;19925;-67
2022/10/04 10:28:24;;;;;;;;;;;16.10;99.90;;;;;;5025084;28;19921;-66
2022/10/04 10:30:58;;;;;;;;;;;16.10;99.90;;;;;;5047741;28;19942;-67
2022/10/04 10:33:36;;;;;;;;;;;16.20;99.90;;;;;;5044018;28;19928;-67
2022/10/04 10:36:08;;;;;;;;;;;16.20;99.90;;;;;;5043452;28;19928;-67
2022/10/04 10:38:49;;;;;;;;;;;16.20;99.90;;;;;;5045340;28;19929;-66
2022/10/04 10:41:18;;;;;;;;;;;16.20;99.90;;;;;;5042494;28;19920;-67
2022/10/04 10:43:45;;;;;;;;;;;16.30;99.90;;;;;;5045059;28;19948;-67
2022/10/04 10:46:46;;;;;;;;;;;16.40;99.90;;;;;;5047643;28;19924;-65
2022/10/04 10:49:30;;;;;;;;;;;16.30;99.90;;;;;;4990100;28;19929;-66
2022/10/04 10:52:13;;;;;;;;;;;16.30;99.90;;;;;;5026722;28;19921;-66
2022/10/04 10:54:58;;;;;;;;;;;16.20;99.90;;;;;;5043860;28;20370;-66
2022/10/04 10:57:36;;;;;;;;;;;16.30;99.90;;;;;;5049594;28;19921;-67
2022/10/04 11:00:16;;;;;;;;;;;16.40;99.90;;;;;;5030346;28;19944;-67
2022/10/04 11:02:45;;;;;;;;;;;16.50;99.90;;;;;;5047199;28;20011;-66
2022/10/04 11:05:29;;;;;;;;;;;16.60;99.90;;;;;;5045233;28;19959;-66
2022/10/04 11:07:57;;;;;;;;;;;16.60;99.90;;;;;;5043081;28;19927;-66
2022/10/04 11:10:36;;;;;;;;;;;16.70;99.90;;;;;;5041594;28;19925;-66
2022/10/04 11:13:01;;;;;;;;;;;16.80;99.90;;;;;;5042651;28;19931;-67
2022/10/04 11:15:30;;;;;;;;;;;16.90;99.90;;;;;;5043990;28;20390;-66
2022/10/04 11:18:25;;;;;;;;;;;16.90;99.90;;;;;;5036126;28;19931;-66
2022/10/04 11:20:58;;;;;;;;;;;17.00;99.90;;;;;;5044781;28;19968;-67
2022/10/04 11:23:26;;;;;;;;;;;17.00;99.90;;;;;;5048120;28;19924;-67
2022/10/04 11:26:11;;;;;;;;;;;17.00;99.90;;;;;;5035962;28;20390;-67
2022/10/04 11:28:45;;;;;;;;;;;17.00;99.90;;;;;;5016318;28;19971;-67
2022/10/04 11:31:22;;;;;;;;;;;17.00;99.90;;;;;;5044651;28;19931;-67
2022/10/04 11:34:11;;;;;;;;;;;17.00;99.90;;;;;;5033595;28;19924;-67
2022/10/04 11:36:43;;;;;;;;;;;17.10;99.90;;;;;;5035094;28;19986;-65
2022/10/04 11:39:08;;;;;;;;;;;17.10;99.90;;;;;;5038899;28;19929;-65
2022/10/04 11:41:47;;;;;;;;;;;17.20;99.90;;;;;;5040931;28;20377;-65
2022/10/04 11:44:23;;;;;;;;;;;17.30;99.90;;;;;;5036705;28;19921;-65
2022/10/04 11:46:54;;;;;;;;;;;17.30;99.90;;;;;;5036524;28;19924;-65
2022/10/04 11:49:35;;;;;;;;;;;17.30;99.90;;;;;;5026290;28;19921;-65
2022/10/04 11:52:19;;;;;;;;;;;17.40;99.90;;;;;;5042828;28;19921;-65
2022/10/04 11:55:05;;;;;;;;;;;17.30;99.90;;;;;;5018885;28;19947;-65
2022/10/04 11:57:37;;;;;;;;;;;17.30;99.90;;;;;;5043230;28;19955;-65
2022/10/04 12:00:09;;;;;;;;;;;17.20;99.90;;;;;;5044698;28;20012;-65
2022/10/04 12:02:47;;;;;;;;;;;17.20;99.90;;;;;;5044941;28;20008;-65
2022/10/04 12:05:37;;;;;;;;;;;17.20;99.90;;;;;;5061043;28;20409;-65
2022/10/04 12:08:29;;;;;;;;;;;17.30;99.90;;;;;;5047573;28;19932;-65
2022/10/04 12:11:13;;;;;;;;;;;17.40;99.90;;;;;;5024563;28;20011;-65
2022/10/04 12:13:46;;;;;;;;;;;17.40;99.90;;;;;;5028812;28;20574;-65
2022/10/04 12:16:18;;;;;;;;;;;17.50;99.90;;;;;;5049468;28;19959;-65
2022/10/04 12:19:01;;;;;;;;;;;17.50;99.90;;;;;;5044333;28;20342;-65
2022/10/04 12:21:35;;;;;;;;;;;17.50;99.90;;;;;;5049768;28;19986;-65
2022/10/04 12:24:13;;;;;;;;;;;17.60;99.90;;;;;;5050598;28;20374;-65
2022/10/04 12:26:58;;;;;;;;;;;17.70;99.90;;;;;;5063277;28;19967;-65
2022/10/04 12:29:27;;;;;;;;;;;17.70;99.90;;;;;;5039356;28;19925;-65
2022/10/04 12:31:53;;;;;;;;;;;17.70;99.90;;;;;;5045754;28;19928;-65
2022/10/04 12:34:38;;;;;;;;;;;17.80;99.90;;;;;;5043402;28;19921;-65
2022/10/04 12:37:24;;;;;;;;;;;17.90;99.90;;;;;;5048358;28;20063;-65
2022/10/04 12:39:59;;;;;;;;;;;17.90;99.90;;;;;;5050250;28;19939;-65
2022/10/04 12:42:38;;;;;;;;;;;17.90;99.90;;;;;;5040354;28;19928;-64
2022/10/04 12:45:23;;;;;;;;;;;18.00;99.90;;;;;;5046478;28;19927;-65
2022/10/04 12:47:51;;;;;;;;;;;18.00;99.90;;;;;;5043941;28;19925;-65
2022/10/04 12:50:25;;;;;;;;;;;18.10;99.90;;;;;;5049588;28;19921;-65
2022/10/04 12:53:02;;;;;;;;;;;18.10;99.90;;;;;;5042006;28;19925;-65
2022/10/04 12:55:45;;;;;;;;;;;18.20;99.90;;;;;;5048199;28;19928;-65
2022/10/04 12:58:34;;;;;;;;;;;18.20;99.90;;;;;;5042862;28;19944;-65
2022/10/04 13:01:12;;;;;;;;;;;18.30;99.90;;;;;;5028644;28;19925;-66
2022/10/04 13:03:40;;;;;;;;;;;18.30;99.90;;;;;;5059150;28;19978;-66
2022/10/04 13:06:15;;;;;;;;;;;18.20;99.90;;;;;;5019599;28;20325;-66
2022/10/04 13:08:41;;;;;;;;;;;18.20;99.90;;;;;;5048085;22;20344;-66
2022/10/04 13:11:09;;;;;;;;;;;18.30;99.90;;;;;;5021320;28;19925;-67
2022/10/04 13:14:04;;;;;;;;;;;18.20;99.90;;;;;;5051780;28;19921;-67
2022/10/04 13:16:45;;;;;;;;;;;18.20;99.90;;;;;;5026013;28;20366;-67
2022/10/04 13:19:21;;;;;;;;;;;18.10;99.90;;;;;;5051995;28;19921;-67
2022/10/04 13:21:49;;;;;;;;;;;18.00;99.90;;;;;;5048738;28;20294;-67
2022/10/04 13:24:24;;;;;;;;;;;18.00;99.90;;;;;;5027751;28;19921;-67
2022/10/04 13:27:00;;;;;;;;;;;18.00;99.90;;;;;;5054289;28;20377;-67
2022/10/04 13:29:46;;;;;;;;;;;18.10;99.90;;;;;;5048480;28;19921;-67
2022/10/04 13:32:15;;;;;;;;;;;18.10;99.90;;;;;;5006547;28;20282;-67
2022/10/04 13:34:50;;;;;;;;;;;18.20;99.90;;;;;;5032608;28;19921;-67
2022/10/04 13:37:22;;;;;;;;;;;18.20;99.90;;;;;;5037969;28;20290;-67
2022/10/04 13:40:06;;;;;;;;;;;18.20;99.90;;;;;;5044048;28;20324;-67
2022/10/04 13:42:50;;;;;;;;;;;18.10;99.90;;;;;;5034982;28;19935;-67
2022/10/04 13:45:25;;;;;;;;;;;18.20;99.90;;;;;;5052236;28;20301;-67
2022/10/04 13:48:16;;;;;;;;;;;18.20;99.90;;;;;;5053125;28;19943;-67
2022/10/04 13:50:41;;;;;;;;;;;18.10;99.90;;;;;;5048172;28;19929;-67
2022/10/04 13:58:51;;;;;;;;;;;18.00;99.90;;;;;;5036641;28;19920;-66
2022/10/04 14:01:35;;;;;;;;;;;17.90;99.90;;;;;;5053110;28;20016;-66
2022/10/04 14:04:20;;;;;;;;;;;17.80;99.90;;;;;;5030789;28;19921;-66
2022/10/04 14:06:48;;;;;;;;;;;17.60;99.90;;;;;;5052663;28;19974;-67
2022/10/04 14:09:22;;;;;;;;;;;17.70;99.90;;;;;;5033073;28;19921;-67
2022/10/04 14:12:07;;;;;;;;;;;17.70;99.90;;;;;;5035411;28;19925;-66
2022/10/04 14:14:42;;;;;;;;;;;17.70;99.90;;;;;;5034850;28;19924;-66
2022/10/04 14:17:34;;;;;;;;;;;17.60;99.90;;;;;;5050729;28;19928;-66
2022/10/04 14:20:08;;;;;;;;;;;17.60;99.90;;;;;;5028893;28;20434;-66
2022/10/04 14:22:43;;;;;;;;;;;17.50;99.90;;;;;;5036234;28;20378;-66
2022/10/04 14:25:08;;;;;;;;;;;17.50;99.90;;;;;;5054186;28;19920;-66
2022/10/04 14:27:36;;;;;;;;;;;17.40;99.90;;;;;;5053212;28;19924;-68
2022/10/04 14:30:08;;;;;;;;;;;17.30;99.90;;;;;;5033392;28;19921;-66
2022/10/04 14:32:53;;;;;;;;;;;17.30;99.90;;;;;;5036108;28;19943;-66
2022/10/04 14:35:41;;;;;;;;;;;17.40;99.90;;;;;;5035671;28;19983;-66
2022/10/04 14:38:09;;;;;;;;;;;17.40;99.90;;;;;;5047179;28;19927;-66
2022/10/04 14:40:44;;;;;;;;;;;17.40;99.90;;;;;;5035962;28;19932;-66
2022/10/04 14:43:28;;;;;;;;;;;17.50;99.90;;;;;;5053078;28;19931;-66
2022/10/04 14:45:59;;;;;;;;;;;17.50;99.90;;;;;;5051005;28;19967;-66
2022/10/04 14:48:37;;;;;;;;;;;17.60;99.90;;;;;;5053770;28;20322;-67
2022/10/04 14:51:09;;;;;;;;;;;17.50;99.90;;;;;;5050583;28;19925;-67
2022/10/04 14:53:40;;;;;;;;;;;17.50;99.90;;;;;;5035567;28;19964;-67
2022/10/04 14:56:25;;;;;;;;;;;17.50;99.90;;;;;;5032427;28;20922;-66
2022/10/04 14:59:09;;;;;;;;;;;17.50;99.90;;;;;;5010862;28;19925;-66
2022/10/04 15:01:37;;;;;;;;;;;17.40;99.90;;;;;;5046620;28;19931;-66
2022/10/04 15:04:17;;;;;;;;;;;17.40;99.90;;;;;;5042473;28;20019;-66
2022/10/04 15:06:48;;;;;;;;;;;17.40;99.90;;;;;;5045457;28;19921;-66
2022/10/04 15:09:13;;;;;;;;;;;17.40;99.90;;;;;;5048827;28;19920;-66
2022/10/04 15:11:43;;;;;;;;;;;17.30;99.90;;;;;;5045873;28;19935;-66
2022/10/04 15:14:21;;;;;;;;;;;17.20;99.90;;;;;;5047956;28;20273;-66